createdAt,value
2023-01-17T00:02:26.233Z,2.58
2023-01-17T00:05:11.427Z,2.57
2023-01-17T00:07:56.201Z,2.54
2023-01-17T00:10:24.752Z,2.54
2023-01-17T00:12:54.184Z,2.51
2023-01-17T00:15:22.849Z,2.50
2023-01-17T00:17:49.951Z,2.47
2023-01-17T00:20:36.604Z,2.43
2023-01-17T00:23:33.625Z,2.41
2023-01-17T00:26:03.177Z,2.41
2023-01-17T00:28:38.607Z,2.43
2023-01-17T00:31:08.004Z,2.44
2023-01-17T00:33:34.547Z,2.44
2023-01-17T00:36:01.752Z,2.42
2023-01-17T00:38:33.486Z,2.43
2023-01-17T00:41:06.967Z,2.37
2023-01-17T00:43:52.087Z,2.35
2023-01-17T00:46:38.125Z,2.32
2023-01-17T00:49:23.931Z,2.20
2023-01-17T00:52:09.319Z,2.14
2023-01-17T00:54:54.246Z,2.05
2023-01-17T00:57:39.057Z,1.86
2023-01-17T01:00:25.101Z,1.60
2023-01-17T01:03:09.819Z,1.48
2023-01-17T01:05:56.618Z,1.45
2023-01-17T01:08:44.582Z,1.42
2023-01-17T01:11:32.411Z,1.42
2023-01-17T01:14:18.417Z,1.42
2023-01-17T01:17:03.368Z,1.42
2023-01-17T01:19:48.125Z,1.45
2023-01-17T01:22:33.078Z,1.48
2023-01-17T01:25:18.410Z,1.50
2023-01-17T01:28:03.239Z,1.51
2023-01-17T01:30:48.059Z,1.52
2023-01-17T01:33:21.129Z,1.52
2023-01-17T01:35:50.623Z,1.53
2023-01-17T01:38:19.431Z,1.56
2023-01-17T01:40:48.770Z,1.48
2023-01-17T01:43:18.225Z,1.40
2023-01-17T01:45:50.825Z,1.32
2023-01-17T01:48:39.405Z,1.20
2023-01-17T01:51:17.555Z,1.11
2023-01-17T01:53:47.824Z,1.02
2023-01-17T01:56:15.404Z,0.94
2023-01-17T01:58:46.114Z,0.87
2023-01-17T02:01:13.151Z,0.81
2023-01-17T02:03:41.255Z,0.76
2023-01-17T02:06:23.216Z,0.70
2023-01-17T02:08:49.693Z,0.65
2023-01-17T02:11:16.109Z,0.67
2023-01-17T02:13:43.463Z,0.73
2023-01-17T02:16:33.478Z,0.77
2023-01-17T02:19:20.755Z,0.83
2023-01-17T02:22:24.459Z,0.87
2023-01-17T02:25:28.585Z,0.88
2023-01-17T02:28:30.570Z,0.81
2023-01-17T02:31:09.043Z,0.72
2023-01-17T02:34:04.573Z,0.71
2023-01-17T02:36:43.222Z,0.66
2023-01-17T02:39:17.783Z,0.64
2023-01-17T02:41:48.838Z,0.66
2023-01-17T02:44:20.491Z,0.66
2023-01-17T02:46:48.998Z,0.65
2023-01-17T02:49:17.669Z,0.65
2023-01-17T02:52:01.718Z,0.64
2023-01-17T02:55:07.731Z,0.67
2023-01-17T02:58:06.357Z,0.66
2023-01-17T03:01:04.914Z,0.64
2023-01-17T03:03:50.121Z,0.60
2023-01-17T03:06:34.771Z,0.57
2023-01-17T03:09:02.794Z,0.53
2023-01-17T03:11:29.292Z,0.52
2023-01-17T03:13:56.914Z,0.51
2023-01-17T03:16:26.538Z,0.48
2023-01-17T03:18:53.824Z,0.44
2023-01-17T03:21:21.332Z,0.43
2023-01-17T03:23:47.734Z,0.43
2023-01-17T03:26:14.297Z,0.46
2023-01-17T03:28:40.723Z,0.49
2023-01-17T03:31:07.259Z,0.54
2023-01-17T03:33:34.285Z,0.58
2023-01-17T03:36:00.807Z,0.58
2023-01-17T03:38:28.603Z,0.60
2023-01-17T03:40:55.103Z,0.59
2023-01-17T03:43:21.489Z,0.54
2023-01-17T03:45:54.034Z,0.50
2023-01-17T03:48:21.332Z,0.43
2023-01-17T03:50:51.387Z,0.34
2023-01-17T03:53:17.728Z,0.29
2023-01-17T03:55:47.498Z,0.20
2023-01-17T03:58:14.548Z,0.11
2023-01-17T04:00:40.904Z,0.06
2023-01-17T04:03:07.580Z,0.01
2023-01-17T04:05:33.951Z,-0.02
2023-01-17T04:08:00.651Z,-0.06
2023-01-17T04:10:27.046Z,-0.12
2023-01-17T04:12:53.551Z,-0.18
2023-01-17T04:15:19.967Z,-0.23
2023-01-17T04:17:46.339Z,-0.29
2023-01-17T04:20:29.461Z,-0.31
2023-01-17T04:22:55.877Z,-0.23
2023-01-17T04:25:22.276Z,-0.19
2023-01-17T04:27:48.667Z,-0.12
2023-01-17T04:30:15.162Z,-0.06
2023-01-17T04:32:41.549Z,-0.04
2023-01-17T04:35:09.416Z,-0.03
2023-01-17T04:37:36.304Z,-0.04
2023-01-17T04:40:03.659Z,-0.06
2023-01-17T04:42:30.100Z,-0.09
2023-01-17T04:44:56.479Z,-0.15
2023-01-17T04:47:22.853Z,-0.22
2023-01-17T04:49:49.259Z,-0.24
2023-01-17T04:52:18.577Z,-0.23
2023-01-17T04:54:45.153Z,-0.25
2023-01-17T04:57:11.479Z,-0.23
2023-01-17T04:59:37.792Z,-0.28
2023-01-17T05:02:04.185Z,-0.28
2023-01-17T05:04:30.527Z,-0.29
2023-01-17T05:06:56.919Z,-0.25
2023-01-17T05:09:23.355Z,-0.25
2023-01-17T05:11:50.518Z,-0.28
2023-01-17T05:14:16.963Z,-0.28
2023-01-17T05:16:43.331Z,-0.31
2023-01-17T05:19:09.700Z,-0.35
2023-01-17T05:21:36.036Z,-0.40
2023-01-17T05:24:02.479Z,-0.45
2023-01-17T05:26:28.856Z,-0.50
2023-01-17T05:28:55.248Z,-0.53
2023-01-17T05:31:21.675Z,-0.59
2023-01-17T05:33:48.105Z,-0.58
2023-01-17T05:36:14.496Z,-0.55
2023-01-17T05:38:40.892Z,-0.55
2023-01-17T05:41:07.337Z,-0.57
2023-01-17T05:43:33.726Z,-0.63
2023-01-17T05:46:00.093Z,-0.65
2023-01-17T05:48:26.511Z,-0.69
2023-01-17T05:50:52.815Z,-0.78
2023-01-17T05:53:19.393Z,-0.80
2023-01-17T05:55:45.921Z,-0.77
2023-01-17T05:58:16.311Z,-0.79
2023-01-17T06:00:42.891Z,-0.80
2023-01-17T06:03:09.643Z,-0.75
2023-01-17T06:05:36.069Z,-0.76
2023-01-17T06:08:03.040Z,-0.72
2023-01-17T06:10:29.737Z,-0.66
2023-01-17T06:13:14.237Z,-0.63
2023-01-17T06:15:41.380Z,-0.58
2023-01-17T06:18:13.191Z,-0.50
2023-01-17T06:20:40.228Z,-0.39
2023-01-17T06:23:10.009Z,-0.22
2023-01-17T06:25:44.971Z,-0.03
2023-01-17T06:28:13.580Z,0.09
2023-01-17T06:30:40.383Z,0.17
2023-01-17T06:33:06.723Z,0.17
2023-01-17T06:35:33.709Z,0.15
2023-01-17T06:38:00.377Z,0.14
2023-01-17T06:40:30.535Z,0.09
2023-01-17T06:43:06.316Z,0.06
2023-01-17T06:45:35.047Z,0.01
2023-01-17T06:48:04.014Z,-0.06
2023-01-17T06:50:30.978Z,-0.12
2023-01-17T06:53:00.966Z,-0.15
2023-01-17T06:55:29.134Z,-0.21
2023-01-17T06:57:56.642Z,-0.24
2023-01-17T07:00:23.361Z,-0.27
2023-01-17T07:02:51.262Z,-0.35
2023-01-17T07:05:18.016Z,-0.42
2023-01-17T07:07:45.502Z,-0.45
2023-01-17T07:10:14.025Z,-0.52
2023-01-17T07:12:40.399Z,-0.56
2023-01-17T07:15:08.004Z,-0.59
2023-01-17T07:17:35.042Z,-0.60
2023-01-17T07:20:01.596Z,-0.62
2023-01-17T07:22:28.034Z,-0.67
2023-01-17T07:24:58.497Z,-0.74
2023-01-17T07:27:27.641Z,-0.75
2023-01-17T07:29:54.384Z,-0.82
2023-01-17T07:32:20.938Z,-0.87
2023-01-17T07:34:47.320Z,-0.86
2023-01-17T07:37:15.192Z,-0.85
2023-01-17T07:39:41.956Z,-0.82
2023-01-17T07:42:09.103Z,-0.83
2023-01-17T07:44:35.471Z,-0.86
2023-01-17T07:47:01.962Z,-0.87
2023-01-17T07:49:28.341Z,-0.87
2023-01-17T07:51:55.509Z,-0.88
2023-01-17T07:54:22.060Z,-0.88
2023-01-17T07:56:48.920Z,-0.86
2023-01-17T07:59:15.342Z,-0.88
2023-01-17T08:01:41.794Z,-0.92
2023-01-17T08:04:09.221Z,-0.89
2023-01-17T08:06:37.815Z,-0.89
2023-01-17T08:09:04.223Z,-0.84
2023-01-17T08:11:30.663Z,-0.79
2023-01-17T08:14:00.192Z,-0.77
2023-01-17T08:16:28.578Z,-0.76
2023-01-17T08:18:56.158Z,-0.71
2023-01-17T08:21:24.401Z,-0.67
2023-01-17T08:23:52.341Z,-0.66
2023-01-17T08:26:23.832Z,-0.65
2023-01-17T08:29:00.449Z,-0.60
2023-01-17T08:31:29.536Z,-0.54
2023-01-17T08:33:56.939Z,-0.52
2023-01-17T08:36:25.709Z,-0.48
2023-01-17T08:38:52.910Z,-0.35
2023-01-17T08:41:20.811Z,0.09
2023-01-17T08:43:48.116Z,0.48
2023-01-17T08:46:14.497Z,0.43
2023-01-17T08:48:40.931Z,0.12
2023-01-17T08:51:07.326Z,-0.08
2023-01-17T08:53:33.900Z,-0.12
2023-01-17T08:56:01.960Z,-0.18
2023-01-17T08:58:30.763Z,-0.11
2023-01-17T09:01:05.772Z,-0.13
2023-01-17T09:03:33.863Z,-0.17
2023-01-17T09:06:11.739Z,-0.01
2023-01-17T09:08:39.005Z,0.21
2023-01-17T09:11:10.073Z,0.29
2023-01-17T09:13:37.230Z,0.51
2023-01-17T09:16:04.393Z,0.36
2023-01-17T09:18:31.905Z,0.24
2023-01-17T09:21:01.410Z,0.28
2023-01-17T09:23:30.003Z,0.18
2023-01-17T09:25:58.830Z,0.11
2023-01-17T09:28:26.535Z,0.24
2023-01-17T09:30:53.883Z,0.47
2023-01-17T09:33:20.991Z,0.47
2023-01-17T09:35:47.387Z,0.52
2023-01-17T09:38:14.128Z,0.59
2023-01-17T09:40:45.989Z,0.67
2023-01-17T09:43:40.044Z,0.74
2023-01-17T09:46:25.371Z,0.65
2023-01-17T09:49:07.825Z,0.75
2023-01-17T09:51:34.567Z,0.76
2023-01-17T09:54:02.381Z,0.69
2023-01-17T09:56:35.225Z,0.77
2023-01-17T09:59:32.997Z,1.02
2023-01-17T10:02:26.392Z,1.51
2023-01-17T10:05:19.611Z,1.47
2023-01-17T10:08:13.832Z,1.47
2023-01-17T10:11:05.112Z,1.58
2023-01-17T10:14:01.673Z,1.45
2023-01-17T10:16:41.904Z,1.67
2023-01-17T10:19:19.137Z,2.01
2023-01-17T10:22:04.199Z,2.56
2023-01-17T10:24:51.818Z,3.02
2023-01-17T10:27:34.719Z,3.04
2023-01-17T10:30:04.837Z,3.54
2023-01-17T10:32:35.537Z,3.57
2023-01-17T10:35:17.538Z,3.53
2023-01-17T10:37:44.243Z,3.66
2023-01-17T10:40:22.094Z,3.68
2023-01-17T10:43:03.203Z,3.07
2023-01-17T10:45:30.210Z,2.78
2023-01-17T10:48:12.902Z,2.75
2023-01-17T10:51:16.030Z,2.92
2023-01-17T10:54:10.249Z,2.92
2023-01-17T10:56:40.171Z,3.63
2023-01-17T10:59:18.407Z,4.49
2023-01-17T11:01:45.155Z,5.21
2023-01-17T11:04:32.267Z,5.86
2023-01-17T11:07:15.618Z,5.09
2023-01-17T11:09:44.556Z,4.06
2023-01-17T11:12:18.767Z,3.96
2023-01-17T11:15:01.865Z,4.60
2023-01-17T11:17:29.334Z,5.65
2023-01-17T11:20:07.634Z,4.93
2023-01-17T11:22:34.899Z,4.58
2023-01-17T11:25:02.460Z,4.04
2023-01-17T11:27:34.512Z,3.88
2023-01-17T11:30:16.208Z,3.48
2023-01-17T11:32:59.043Z,3.19
2023-01-17T11:35:28.940Z,3.78
2023-01-17T11:38:11.638Z,4.86
2023-01-17T11:40:45.921Z,4.37
2023-01-17T11:43:12.742Z,4.33
2023-01-17T11:45:40.983Z,5.18
2023-01-17T11:48:13.411Z,6.19
2023-01-17T11:50:43.952Z,6.72
2023-01-17T11:53:36.912Z,6.74
2023-01-17T11:56:05.239Z,5.80
2023-01-17T11:58:34.534Z,6.37
2023-01-17T12:01:20.906Z,7.66
2023-01-17T12:03:47.286Z,8.89
2023-01-17T12:06:19.381Z,9.67
2023-01-17T12:08:59.481Z,10.17
2023-01-17T12:11:37.944Z,10.20
2023-01-17T12:14:18.233Z,11.03
2023-01-17T12:17:03.953Z,11.00
2023-01-17T12:19:33.928Z,11.38
2023-01-17T12:22:24.672Z,11.62
2023-01-17T12:25:26.589Z,11.61
2023-01-17T12:28:01.760Z,12.16
2023-01-17T12:30:53.123Z,12.32
2023-01-17T12:33:38.863Z,12.28
2023-01-17T12:36:17.455Z,11.92
2023-01-17T12:38:47.119Z,12.31
2023-01-17T12:41:26.441Z,11.48
2023-01-17T12:43:57.551Z,11.65
2023-01-17T12:46:30.203Z,11.80
2023-01-17T12:49:04.369Z,11.60
2023-01-17T12:51:36.963Z,11.39
2023-01-17T12:54:17.148Z,11.94
2023-01-17T12:56:58.135Z,12.09
2023-01-17T12:59:42.799Z,12.51
2023-01-17T13:02:22.010Z,12.16
2023-01-17T13:05:00.700Z,11.77
2023-01-17T13:07:51.409Z,11.44
2023-01-17T13:10:41.469Z,11.08
2023-01-17T13:13:26.389Z,11.18
2023-01-17T13:16:00.795Z,11.16
2023-01-17T13:18:29.737Z,11.01
2023-01-17T13:21:14.036Z,11.26
2023-01-17T13:24:03.265Z,10.95
2023-01-17T13:26:36.448Z,11.37
2023-01-17T13:29:21.743Z,9.94
2023-01-17T13:31:57.549Z,7.67
2023-01-17T13:34:45.828Z,6.33
2023-01-17T13:37:49.787Z,5.62
2023-01-17T13:40:32.939Z,5.21
2023-01-17T13:43:01.672Z,5.02
2023-01-17T13:45:31.841Z,4.95
2023-01-17T13:48:29.820Z,4.73
2023-01-17T13:50:59.046Z,4.64
2023-01-17T13:53:34.406Z,4.59
2023-01-17T13:56:19.041Z,4.56
2023-01-17T13:58:50.035Z,4.54
2023-01-17T14:01:22.528Z,4.38
2023-01-17T14:03:48.915Z,4.33
2023-01-17T14:06:35.398Z,4.30
2023-01-17T14:09:07.925Z,4.27
2023-01-17T14:11:36.262Z,4.24
2023-01-17T14:14:39.884Z,4.15
2023-01-17T14:17:29.136Z,4.04
2023-01-17T14:20:01.923Z,3.97
2023-01-17T14:22:34.000Z,3.95
2023-01-17T14:25:12.244Z,3.89
2023-01-17T14:28:00.039Z,3.83
2023-01-17T14:30:36.846Z,3.81
2023-01-17T14:33:04.675Z,3.76
2023-01-17T14:35:40.332Z,3.69
2023-01-17T14:38:21.376Z,3.58
2023-01-17T14:40:54.136Z,3.51
2023-01-17T14:43:23.518Z,3.43
2023-01-17T14:45:57.765Z,3.39
2023-01-17T14:48:24.903Z,3.34
2023-01-17T14:50:59.813Z,3.26
2023-01-17T14:53:31.462Z,3.13
2023-01-17T14:56:03.414Z,3.07
2023-01-17T14:58:31.918Z,3.10
2023-01-17T15:01:19.356Z,3.01
2023-01-17T15:03:50.210Z,2.93
2023-01-17T15:06:24.019Z,2.83
2023-01-17T15:08:53.980Z,2.72
2023-01-17T15:11:26.858Z,2.58
2023-01-17T15:13:57.414Z,2.41
2023-01-17T15:16:30.780Z,2.32
2023-01-17T15:18:57.449Z,2.30
2023-01-17T15:21:29.588Z,2.26
2023-01-17T15:24:02.252Z,2.09
2023-01-17T15:26:33.097Z,1.89
2023-01-17T15:29:05.362Z,1.73
2023-01-17T15:31:54.041Z,1.61
2023-01-17T15:34:29.575Z,1.43
2023-01-17T15:36:59.467Z,1.27
2023-01-17T15:39:33.443Z,1.21
2023-01-17T15:42:04.372Z,1.09
2023-01-17T15:44:48.555Z,0.99
2023-01-17T15:47:32.745Z,0.89
2023-01-17T15:50:01.181Z,0.81
2023-01-17T15:52:28.299Z,0.72
2023-01-17T15:55:30.107Z,0.63
2023-01-17T15:57:56.922Z,0.53
2023-01-17T16:00:32.650Z,0.41
2023-01-17T16:02:59.619Z,0.30
2023-01-17T16:05:31.073Z,0.16
2023-01-17T16:08:23.069Z,0.02
2023-01-17T16:10:53.604Z,-0.17
2023-01-17T16:13:20.391Z,-0.30
2023-01-17T16:15:46.850Z,-0.39
2023-01-17T16:18:17.793Z,-0.46
2023-01-17T16:20:53.179Z,-0.56
2023-01-17T16:23:19.560Z,-0.64
2023-01-17T16:25:47.183Z,-0.74
2023-01-17T16:28:13.503Z,-0.80
2023-01-17T16:30:40.027Z,-0.85
2023-01-17T16:33:06.557Z,-0.90
2023-01-17T16:35:34.541Z,-0.95
2023-01-17T16:38:04.266Z,-1.00
2023-01-17T16:40:39.233Z,-1.06
2023-01-17T16:43:05.997Z,-1.07
2023-01-17T16:45:40.044Z,-1.10
2023-01-17T16:48:06.695Z,-1.10
2023-01-17T16:50:33.064Z,-1.10
2023-01-17T16:52:59.580Z,-1.18
2023-01-17T16:55:26.468Z,-1.28
2023-01-17T16:57:56.255Z,-1.33
2023-01-17T17:00:23.098Z,-1.39
2023-01-17T17:02:53.516Z,-1.39
2023-01-17T17:05:20.219Z,-1.41
2023-01-17T17:07:50.133Z,-1.45
2023-01-17T17:10:21.871Z,-1.52
2023-01-17T17:12:48.203Z,-1.61
2023-01-17T17:15:14.575Z,-1.67
2023-01-17T17:17:42.975Z,-1.67
2023-01-17T17:20:12.473Z,-1.65
2023-01-17T17:22:44.047Z,-1.65
2023-01-17T17:25:11.962Z,-1.65
2023-01-17T17:27:38.817Z,-1.67
2023-01-17T17:30:06.297Z,-1.67
2023-01-17T17:32:32.735Z,-1.71
2023-01-17T17:34:59.117Z,-1.72
2023-01-17T17:37:28.740Z,-1.74
2023-01-17T17:39:56.160Z,-1.74
2023-01-17T17:42:23.190Z,-1.75
2023-01-17T17:44:49.536Z,-1.79
2023-01-17T17:47:16.342Z,-1.82
2023-01-17T17:49:43.442Z,-1.88
2023-01-17T17:52:10.050Z,-1.95
2023-01-17T17:54:36.833Z,-1.95
2023-01-17T17:57:03.467Z,-1.95
2023-01-17T17:59:30.016Z,-1.95
2023-01-17T18:01:57.056Z,-1.95
2023-01-17T18:04:23.579Z,-1.95
2023-01-17T18:06:49.986Z,-1.99
2023-01-17T18:09:16.585Z,-2.02
2023-01-17T18:11:43.999Z,-2.04
2023-01-17T18:14:14.641Z,-2.06
2023-01-17T18:16:43.383Z,-2.04
2023-01-17T18:19:16.605Z,-2.03
2023-01-17T18:21:43.497Z,-2.02
2023-01-17T18:24:15.252Z,-1.97
2023-01-17T18:26:45.180Z,-1.95
2023-01-17T18:29:17.853Z,-1.99
2023-01-17T18:31:45.637Z,-2.00
2023-01-17T18:34:15.691Z,-2.00
2023-01-17T18:36:43.185Z,-2.00
2023-01-17T18:39:21.399Z,-1.98
2023-01-17T18:41:49.242Z,-1.98
2023-01-17T18:44:16.198Z,-1.96
2023-01-17T18:46:43.187Z,-1.92
2023-01-17T18:49:16.068Z,-1.88
2023-01-17T18:51:48.901Z,-1.84
2023-01-17T18:54:15.406Z,-1.84
2023-01-17T18:56:42.360Z,-1.82
2023-01-17T18:59:12.164Z,-1.79
2023-01-17T19:01:42.138Z,-1.75
2023-01-17T19:04:09.038Z,-1.73
2023-01-17T19:06:38.194Z,-1.72
2023-01-17T19:09:07.100Z,-1.71
2023-01-17T19:11:34.626Z,-1.68
2023-01-17T19:14:01.004Z,-1.73
2023-01-17T19:16:30.429Z,-1.79
2023-01-17T19:19:01.810Z,-1.83
2023-01-17T19:21:28.957Z,-1.81
2023-01-17T19:23:56.502Z,-1.84
2023-01-17T19:26:25.035Z,-1.85
2023-01-17T19:28:51.678Z,-1.83
2023-01-17T19:31:25.883Z,-1.83
2023-01-17T19:33:55.947Z,-1.94
2023-01-17T19:36:28.273Z,-1.99
2023-01-17T19:39:04.534Z,-2.04
2023-01-17T19:41:32.732Z,-2.12
2023-01-17T19:44:01.615Z,-2.15
2023-01-17T19:46:28.620Z,-2.15
2023-01-17T19:48:56.656Z,-2.13
2023-01-17T19:51:24.359Z,-2.13
2023-01-17T19:53:51.070Z,-2.14
2023-01-17T19:56:20.999Z,-2.14
2023-01-17T19:58:48.013Z,-2.15
2023-01-17T20:01:24.489Z,-2.15
2023-01-17T20:03:51.689Z,-2.12
2023-01-17T20:06:20.755Z,-2.09
2023-01-17T20:08:47.231Z,-2.11
2023-01-17T20:11:24.202Z,-2.00
2023-01-17T20:13:56.156Z,-1.95
2023-01-17T20:16:24.244Z,-1.87
2023-01-17T20:18:51.133Z,-1.89
2023-01-17T20:21:23.225Z,-1.93
2023-01-17T20:23:51.316Z,-1.90
2023-01-17T20:26:20.138Z,-1.88
2023-01-17T20:28:48.843Z,-1.86
2023-01-17T20:31:17.788Z,-1.88
2023-01-17T20:33:46.776Z,-1.92
2023-01-17T20:36:15.394Z,-1.97
2023-01-17T20:38:45.817Z,-2.02
2023-01-17T20:41:17.875Z,-2.03
2023-01-17T20:43:49.630Z,-2.06
2023-01-17T20:46:17.677Z,-2.03
2023-01-17T20:48:46.746Z,-2.02
2023-01-17T20:51:15.141Z,-1.96
2023-01-17T20:53:43.878Z,-1.94
2023-01-17T20:56:13.275Z,-1.97
2023-01-17T20:58:40.432Z,-1.94
2023-01-17T21:01:08.648Z,-1.89
2023-01-17T21:03:36.528Z,-1.87
2023-01-17T21:06:05.864Z,-1.90
2023-01-17T21:08:34.516Z,-1.86
2023-01-17T21:11:01.550Z,-1.79
2023-01-17T21:13:28.251Z,-1.76
2023-01-17T21:15:55.076Z,-1.82
2023-01-17T21:18:23.975Z,-1.80
2023-01-17T21:20:50.855Z,-1.72
2023-01-17T21:23:20.680Z,-1.69
2023-01-17T21:25:57.650Z,-1.71
2023-01-17T21:28:29.220Z,-1.78
2023-01-17T21:30:56.300Z,-1.78
2023-01-17T21:33:24.232Z,-1.82
2023-01-17T21:35:51.128Z,-1.89
2023-01-17T21:38:18.014Z,-2.04
2023-01-17T21:40:45.153Z,-2.14
2023-01-17T21:43:11.957Z,-2.20
2023-01-17T21:45:39.978Z,-2.22
2023-01-17T21:48:07.724Z,-2.25
2023-01-17T21:50:34.246Z,-2.27
2023-01-17T21:53:00.780Z,-2.31
2023-01-17T21:55:45.915Z,-2.37
2023-01-17T21:58:32.768Z,-2.38
2023-01-17T22:01:08.833Z,-2.39
2023-01-17T22:03:36.172Z,-2.43
2023-01-17T22:06:04.849Z,-2.50
2023-01-17T22:08:37.756Z,-2.54
2023-01-17T22:11:07.300Z,-2.60
2023-01-17T22:13:35.408Z,-2.61
2023-01-17T22:16:04.372Z,-2.60
2023-01-17T22:18:31.767Z,-2.64
2023-01-17T22:20:58.145Z,-2.66
2023-01-17T22:23:24.519Z,-2.68
2023-01-17T22:25:50.887Z,-2.70
2023-01-17T22:28:17.305Z,-2.71
2023-01-17T22:30:43.837Z,-2.77
2023-01-17T22:33:10.305Z,-2.80
2023-01-17T22:35:36.676Z,-2.79
2023-01-17T22:38:03.011Z,-2.85
2023-01-17T22:40:31.483Z,-2.88
2023-01-17T22:42:58.174Z,-2.91
2023-01-17T22:45:25.799Z,-2.89
2023-01-17T22:47:52.180Z,-2.86
2023-01-17T22:50:18.520Z,-2.86
2023-01-17T22:52:44.910Z,-2.88
2023-01-17T22:55:12.069Z,-2.88
2023-01-17T22:57:38.534Z,-2.88
2023-01-17T23:00:14.220Z,-2.87
2023-01-17T23:02:41.740Z,-2.91
2023-01-17T23:05:11.997Z,-2.95
2023-01-17T23:07:44.358Z,-2.98
2023-01-17T23:10:13.363Z,-3.04
2023-01-17T23:12:39.906Z,-3.10
2023-01-17T23:15:25.112Z,-3.12
2023-01-17T23:18:09.775Z,-3.13
2023-01-17T23:20:36.491Z,-3.11
2023-01-17T23:23:02.837Z,-3.09
2023-01-17T23:25:29.263Z,-3.16
2023-01-17T23:28:27.790Z,-3.19
2023-01-17T23:30:54.199Z,-3.19
2023-01-17T23:33:20.552Z,-3.25
2023-01-17T23:35:46.953Z,-3.26
2023-01-17T23:38:29.181Z,-3.25
2023-01-17T23:41:18.977Z,-3.30
2023-01-17T23:43:50.084Z,-3.30
2023-01-17T23:46:16.622Z,-3.33
2023-01-17T23:48:42.994Z,-3.37
2023-01-17T23:51:09.379Z,-3.37
2023-01-17T23:53:37.793Z,-3.41
2023-01-17T23:56:19.642Z,-3.45
2023-01-17T23:58:46.395Z,-3.49
